Time;durP1;ratioP1;P1;durP2;ratioP2;P2;SDS_P1;SDS_P2;PMS_P1;PMS_P2;Temp;Humidity;BMP_temperature;BMP_pressure;BME280_temperature;BME280_humidity;BME280_pressure;Samples;Min_cycle;Max_cycle;Signal;HPM_P1;HPM_P2
2023/02/14 00:01:58;;;;;;;0.00;0.00;;;;;;;8.47;57.17;102078.53;7360064;19;20015;-61
2023/02/14 00:04:24;;;;;;;0.00;0.00;;;;;;;8.44;57.38;102064.63;7361328;19;20016;-61
2023/02/14 00:06:49;;;;;;;0.00;0.00;;;;;;;8.33;57.03;102028.06;7361251;19;20010;-61
2023/02/14 00:09:17;;;;;;;0.00;0.00;;;;;;;8.35;57.26;102041.94;7362095;19;20082;-61
2023/02/14 00:11:43;;;;;;;0.00;0.00;;;;;;;8.29;57.34;102039.31;7360196;19;20010;-60
2023/02/14 00:16:53;;;;;;;0.10;0.10;;;;;;;8.18;57.09;102033.16;7357662;19;20021;-61
2023/02/14 00:19:20;;;;;;;0.00;0.00;;;;;;;8.05;57.41;102012.19;7360639;19;21483;-59
2023/02/14 00:21:46;;;;;;;0.10;0.10;;;;;;;8.00;57.63;102028.63;7361209;19;20021;-60
2023/02/14 00:24:18;;;;;;;0.00;0.00;;;;;;;8.03;57.14;102024.34;7360546;19;20018;-59
2023/02/14 00:26:44;;;;;;;0.00;0.00;;;;;;;7.90;57.47;102006.88;7360383;19;20489;-59
2023/02/14 00:29:13;;;;;;;0.10;0.10;;;;;;;7.96;58.10;102043.38;7360291;19;20038;-61
2023/02/14 00:31:39;;;;;;;0.00;0.00;;;;;;;7.93;57.79;102022.50;7359149;19;20694;-59
2023/02/14 00:34:05;;;;;;;0.10;0.10;;;;;;;7.83;57.84;102010.28;7362719;19;20021;-60
2023/02/14 00:36:30;;;;;;;0.05;0.05;;;;;;;7.86;58.07;102012.91;7359214;19;20010;-60
2023/02/14 00:38:56;;;;;;;0.00;0.00;;;;;;;7.86;58.06;102022.47;7361136;19;20019;-61
2023/02/14 00:41:22;;;;;;;0.00;0.00;;;;;;;7.68;58.07;101989.31;7359250;19;20046;-60
2023/02/14 00:43:49;;;;;;;0.03;0.03;;;;;;;7.81;58.49;102017.22;7360558;19;20038;-60
2023/02/14 00:46:16;;;;;;;0.08;0.08;;;;;;;7.79;58.22;102021.50;7356533;19;20719;-61
2023/02/14 00:48:41;;;;;;;0.00;0.00;;;;;;;7.77;58.49;102015.44;7360496;19;20014;-61
2023/02/14 00:51:08;;;;;;;0.00;0.00;;;;;;;7.75;58.61;102001.53;7363709;19;20005;-60
2023/02/14 00:53:33;;;;;;;0.00;0.00;;;;;;;7.53;58.68;101961.44;7363279;19;20010;-59
2023/02/14 00:55:59;;;;;;;0.00;0.00;;;;;;;7.72;58.66;101998.91;7365850;19;20754;-60
2023/02/14 00:58:24;;;;;;;0.00;0.00;;;;;;;7.56;58.47;101984.88;7366573;19;20821;-60
2023/02/14 01:00:51;;;;;;;0.00;0.00;;;;;;;7.68;58.92;101999.72;7359617;19;20021;-61
2023/02/14 01:03:16;;;;;;;0.00;0.00;;;;;;;7.61;59.54;101982.34;7366508;19;20034;-60
2023/02/14 01:05:41;;;;;;;0.00;0.00;;;;;;;7.64;59.35;101990.16;7365532;19;20003;-61
2023/02/14 01:08:07;;;;;;;0.00;0.00;;;;;;;7.59;59.55;101986.63;7366488;19;20364;-58
2023/02/14 01:10:35;;;;;;;0.00;0.00;;;;;;;7.58;59.69;101990.09;7351898;19;20027;-59
2023/02/14 01:13:00;;;;;;;0.00;0.00;;;;;;;7.64;59.97;101993.63;7367229;19;20013;-61
2023/02/14 01:15:26;;;;;;;0.00;0.00;;;;;;;7.20;60.28;101923.00;7364897;19;20007;-60
2023/02/14 01:17:51;;;;;;;0.00;0.00;;;;;;;7.64;60.42;101993.63;7365515;19;20007;-59
2023/02/14 01:20:17;;;;;;;0.00;0.00;;;;;;;7.71;60.62;101994.56;7362214;19;20044;-60
2023/02/14 01:22:42;;;;;;;0.00;0.00;;;;;;;7.56;60.80;101963.22;7365074;19;20010;-60
2023/02/14 01:25:08;;;;;;;0.10;0.10;;;;;;;7.70;61.01;101972.88;7365669;19;20015;-61
2023/02/14 01:27:33;;;;;;;0.00;0.00;;;;;;;7.71;61.05;101958.19;7366141;19;20018;-61
2023/02/14 01:29:58;;;;;;;0.00;0.00;;;;;;;7.81;61.31;101965.19;7362791;19;20006;-61
2023/02/14 01:32:24;;;;;;;0.00;0.00;;;;;;;7.89;61.65;101976.53;7365156;19;20071;-61
2023/02/14 01:34:49;;;;;;;0.00;0.00;;;;;;;7.83;62.05;101953.06;7360165;19;20003;-61
2023/02/14 01:37:15;;;;;;;0.03;0.03;;;;;;;7.97;61.46;101961.88;7366984;19;20006;-60
2023/02/14 01:39:40;;;;;;;0.00;0.00;;;;;;;8.02;61.76;101964.50;7360559;19;20111;-61
2023/02/14 01:42:06;;;;;;;0.00;0.00;;;;;;;8.10;62.26;101956.75;7365323;19;20557;-60
2023/02/14 01:44:31;;;;;;;0.00;0.00;;;;;;;8.17;61.47;101953.34;7363723;19;20393;-61
2023/02/14 01:46:59;;;;;;;0.00;0.00;;;;;;;8.24;62.37;101950.78;7365042;19;20014;-60
2023/02/14 01:49:28;;;;;;;0.00;0.00;;;;;;;8.22;62.22;101936.03;7364586;19;20019;-61
2023/02/14 01:52:07;;;;;;;0.00;0.00;;;;;;;8.35;62.22;101937.84;7363121;19;20112;-60
2023/02/14 01:54:37;;;;;;;0.00;0.00;;;;;;;8.47;62.89;101947.50;7364078;19;20839;-61
2023/02/14 01:57:07;;;;;;;0.00;0.00;;;;;;;8.47;61.70;101930.16;7366041;19;20018;-60
2023/02/14 01:59:37;;;;;;;0.00;0.00;;;;;;;8.52;62.89;101931.06;7361302;19;20074;-59
2023/02/14 02:02:04;;;;;;;0.00;0.00;;;;;;;8.72;62.55;101943.31;7359889;19;20014;-58
2023/02/14 02:04:34;;;;;;;0.00;0.00;;;;;;;8.79;62.52;101942.47;7361197;19;19998;-61
2023/02/14 02:07:07;;;;;;;0.00;0.00;;;;;;;8.73;63.22;101913.78;7363232;19;21028;-61
2023/02/14 02:09:38;;;;;;;0.00;0.00;;;;;;;8.93;63.31;101932.09;7362940;19;20144;-61
2023/02/14 02:12:03;;;;;;;0.00;0.00;;;;;;;8.94;63.28;101928.63;7363396;19;20082;-63
2023/02/14 02:14:29;;;;;;;0.00;0.00;;;;;;;9.03;63.79;101928.66;7366539;19;20423;-60
2023/02/14 02:17:07;;;;;;;0.00;0.00;;;;;;;9.07;63.25;101926.09;7362888;19;20002;-61
2023/02/14 02:19:56;;;;;;;0.00;0.00;;;;;;;9.15;62.70;101917.41;7364623;19;20023;-60
2023/02/14 02:22:40;;;;;;;0.10;0.10;;;;;;;9.18;61.36;101913.09;7364655;19;20017;-61
2023/02/14 02:25:18;;;;;;;0.00;0.00;;;;;;;9.20;61.91;101906.13;7360331;19;20349;-61
2023/02/14 02:28:02;;;;;;;0.00;0.00;;;;;;;9.22;63.58;101908.72;7362657;19;20006;-61
2023/02/14 02:30:48;;;;;;;0.00;0.00;;;;;;;9.23;62.69;101915.69;7359419;19;20010;-60
2023/02/14 02:33:27;;;;;;;0.08;0.08;;;;;;;9.24;63.38;101917.44;7364444;19;20038;-61
2023/02/14 02:36:18;;;;;;;0.00;0.00;;;;;;;9.27;62.10;101918.28;7365079;19;20010;-61
2023/02/14 02:39:02;;;;;;;0.00;0.00;;;;;;;9.26;63.72;101928.72;7262166;19;2004314;-61
2023/02/14 02:41:52;;;;;;;0.00;0.00;;;;;;;9.27;61.75;101927.84;7362414;19;20011;-61
2023/02/14 02:44:25;;;;;;;0.00;0.00;;;;;;;9.25;63.34;101906.13;7357079;19;20462;-61
2023/02/14 02:47:09;;;;;;;0.00;0.00;;;;;;;9.26;62.48;101908.72;7363618;19;20010;-60
2023/02/14 02:53:01;;;;;;;0.00;0.00;;;;;;;9.14;62.52;101895.69;7262719;19;2004539;-61
2023/02/14 02:56:44;;;;;;;0.00;0.00;;;;;;;9.21;63.22;101904.38;7360180;19;19998;-61
2023/02/14 02:58:21;;;;;;;0.00;0.00;;;;;;;9.04;63.20;101879.16;7250184;19;2004521;-61
2023/02/14 03:00:49;;;;;;;0.00;0.00;;;;;;;9.17;63.36;101905.25;7360724;19;20013;-59
2023/02/14 03:06:00;;;;;;;0.00;0.00;;;;;;;8.99;63.06;101880.88;7357683;19;20021;-61
2023/02/14 03:08:25;;;;;;;0.00;0.00;;;;;;;9.14;63.55;101911.31;7361464;19;20002;-60
2023/02/14 03:10:52;;;;;;;0.00;0.00;;;;;;;9.14;62.99;101910.47;7361436;19;20019;-61
2023/02/14 03:13:36;;;;;;;0.00;0.00;;;;;;;9.18;62.71;101912.22;7359057;19;20470;-59
2023/02/14 03:16:16;;;;;;;0.00;0.00;;;;;;;9.16;64.15;101917.41;7362318;19;20062;-60
2023/02/14 03:22:03;;;;;;;0.00;0.00;;;;;;;9.17;64.10;101911.31;7256870;19;2004475;-60
2023/02/14 03:24:45;;;;;;;0.00;0.00;;;;;;;9.19;64.00;101896.56;7360827;19;20041;-60
2023/02/14 03:27:22;;;;;;;0.00;0.00;;;;;;;9.23;63.89;101902.66;7359672;19;20002;-61
2023/02/14 03:30:00;;;;;;;0.00;0.00;;;;;;;9.25;63.70;101898.31;7355751;19;20689;-61
2023/02/14 03:32:37;;;;;;;0.00;0.00;;;;;;;9.25;64.12;101882.69;7356914;19;20011;-61
2023/02/14 03:35:21;;;;;;;0.03;0.03;;;;;;;9.29;63.21;101889.66;7360899;19;20400;-60
2023/02/14 03:37:52;;;;;;;0.10;0.10;;;;;;;9.28;64.02;101883.56;7362263;19;20458;-61
2023/02/14 03:40:26;;;;;;;0.00;0.00;;;;;;;9.32;63.81;101885.28;7357982;19;20407;-60
2023/02/14 03:42:56;;;;;;;0.00;0.00;;;;;;;9.38;64.04;101879.22;7356526;19;20006;-59
2023/02/14 03:45:26;;;;;;;0.00;0.00;;;;;;;9.40;63.37;101880.09;7363800;19;19999;-61
2023/02/14 03:47:54;;;;;;;0.00;0.00;;;;;;;9.46;64.41;101887.91;7357976;19;20362;-61
2023/02/14 03:50:20;;;;;;;0.00;0.00;;;;;;;9.50;64.28;101878.38;7360020;19;20033;-60
2023/02/14 03:52:49;;;;;;;0.00;0.00;;;;;;;9.58;63.94;101872.28;7357641;19;20006;-61
2023/02/14 03:55:18;;;;;;;0.05;0.05;;;;;;;9.62;64.86;101870.53;7360923;19;20011;-61
2023/02/14 03:58:07;;;;;;;0.00;0.00;;;;;;;9.68;64.45;101872.25;7358350;19;20010;-59
2023/02/14 04:00:37;;;;;;;0.00;0.00;;;;;;;9.64;64.26;101855.78;7359061;19;20067;-61
2023/02/14 04:03:10;;;;;;;0.00;0.00;;;;;;;9.68;63.32;101857.50;7337541;19;20006;-61
2023/02/14 04:05:40;;;;;;;0.00;0.00;;;;;;;9.77;63.62;101859.22;7361577;19;20006;-61
2023/02/14 04:08:06;;;;;;;0.00;0.00;;;;;;;9.80;63.64;101861.84;7359142;19;20034;-61
2023/02/14 04:10:32;;;;;;;0.00;0.00;;;;;;;9.79;64.02;101849.69;7359441;19;20683;-61
2023/02/14 04:12:57;;;;;;;0.00;0.00;;;;;;;9.73;64.45;101841.84;7357072;19;20021;-61
2023/02/14 04:15:22;;;;;;;0.00;0.00;;;;;;;9.71;65.00;101839.25;7360128;19;20469;-61
2023/02/14 04:20:33;;;;;;;0.00;0.00;;;;;;;9.65;64.43;101809.69;7343127;19;20477;-61
2023/02/14 04:22:58;;;;;;;0.00;0.00;;;;;;;9.79;64.13;101826.19;7359026;19;22133;-61
2023/02/14 04:25:24;;;;;;;0.10;0.10;;;;;;;9.82;65.45;101828.78;7353259;19;20053;-60
2023/02/14 04:27:49;;;;;;;0.00;0.00;;;;;;;9.86;65.82;101825.31;7358164;19;20767;-60
2023/02/14 04:30:16;;;;;;;0.00;0.00;;;;;;;9.89;65.23;101830.53;7361605;19;20018;-59
2023/02/14 04:32:42;;;;;;;0.00;0.00;;;;;;;9.83;65.85;101826.19;7357900;19;20118;-61
2023/02/14 04:35:08;;;;;;;0.00;0.00;;;;;;;9.90;65.53;101841.84;7359357;19;20069;-61
2023/02/14 04:37:33;;;;;;;0.00;0.00;;;;;;;9.88;66.05;101839.19;7360317;19;20042;-60
2023/02/14 04:39:59;;;;;;;0.10;0.10;;;;;;;9.92;65.51;101856.59;7359402;19;20002;-60
2023/02/14 04:42:24;;;;;;;0.00;0.00;;;;;;;9.57;66.06;101776.66;7359829;19;20985;-61
2023/02/14 04:44:49;;;;;;;0.00;0.00;;;;;;;9.95;65.94;101840.94;7356541;19;20017;-59
2023/02/14 04:47:15;;;;;;;0.10;0.10;;;;;;;9.93;66.83;101832.25;7360351;19;20026;-60
2023/02/14 04:49:40;;;;;;;0.00;0.00;;;;;;;9.95;66.49;101843.56;7361004;19;20013;-60
2023/02/14 04:52:06;;;;;;;0.00;0.00;;;;;;;9.98;66.50;101840.94;7360893;19;20032;-60
2023/02/14 04:54:31;;;;;;;0.00;0.00;;;;;;;9.99;66.80;101845.31;7353558;19;20026;-61
2023/02/14 04:56:57;;;;;;;0.00;0.00;;;;;;;10.03;66.98;101843.53;7361088;19;20020;-60
2023/02/14 04:59:23;;;;;;;0.10;0.10;;;;;;;10.05;66.60;101837.44;7360017;19;20019;-61
2023/02/14 05:01:48;;;;;;;0.00;0.00;;;;;;;10.05;66.97;101842.66;7358355;19;20019;-60
2023/02/14 05:04:14;;;;;;;0.00;0.00;;;;;;;10.07;66.91;101843.53;7356580;19;20014;-61
2023/02/14 05:06:39;;;;;;;0.00;0.00;;;;;;;10.09;66.58;101839.19;7356467;19;20014;-60
2023/02/14 05:09:05;;;;;;;0.00;0.00;;;;;;;10.04;66.40;101830.50;7359264;19;20006;-61
2023/02/14 05:11:31;;;;;;;0.00;0.00;;;;;;;10.07;66.41;101838.31;7354956;19;20013;-61
2023/02/14 05:13:56;;;;;;;0.03;0.03;;;;;;;10.06;66.45;101833.97;7359573;19;20006;-61
2023/02/14 05:16:22;;;;;;;0.00;0.00;;;;;;;10.01;66.75;101814.84;7355722;19;20723;-61
2023/02/14 05:18:47;;;;;;;0.00;0.00;;;;;;;10.13;66.29;101835.66;7355511;19;20014;-61
2023/02/14 05:21:13;;;;;;;0.00;0.00;;;;;;;10.07;65.94;101822.66;7357034;19;20622;-60
2023/02/14 05:23:38;;;;;;;0.00;0.00;;;;;;;10.12;66.10;101827.84;7357286;19;20714;-61
2023/02/14 05:26:04;;;;;;;0.00;0.00;;;;;;;10.14;66.17;101832.22;7358060;19;20499;-59
2023/02/14 05:28:30;;;;;;;0.00;0.00;;;;;;;10.14;65.96;101831.34;7358384;19;20125;-61
2023/02/14 05:30:57;;;;;;;0.00;0.00;;;;;;;10.04;66.41;101808.75;7358463;19;20014;-61
2023/02/14 05:33:23;;;;;;;0.00;0.00;;;;;;;10.15;66.38;101820.03;7357950;19;20007;-61
2023/02/14 05:35:48;;;;;;;0.00;0.00;;;;;;;10.09;65.85;101797.44;7358697;19;20018;-61
2023/02/14 05:38:14;;;;;;;0.00;0.00;;;;;;;10.20;66.12;101814.78;7365454;19;20007;-61
2023/02/14 05:40:40;;;;;;;0.00;0.00;;;;;;;9.95;66.83;101773.09;7362662;19;20039;-61
2023/02/14 05:43:06;;;;;;;0.00;0.00;;;;;;;10.08;66.57;101789.59;7366056;19;20015;-61
2023/02/14 05:45:31;;;;;;;0.00;0.00;;;;;;;10.25;66.07;101813.06;7360926;19;20022;-61
2023/02/14 05:47:56;;;;;;;0.00;0.00;;;;;;;10.28;65.89;101818.25;7362314;19;20113;-60
2023/02/14 05:50:22;;;;;;;0.00;0.00;;;;;;;10.28;66.47;101821.75;7361589;19;21403;-60
2023/02/14 05:52:47;;;;;;;0.00;0.00;;;;;;;10.20;66.29;101806.97;7364097;19;20007;-60
2023/02/14 05:55:13;;;;;;;0.00;0.00;;;;;;;10.21;65.64;101791.28;7360740;19;20017;-61
2023/02/14 05:57:38;;;;;;;0.00;0.00;;;;;;;10.30;67.03;101800.88;7362639;19;20010;-61
2023/02/14 06:00:05;;;;;;;0.00;0.00;;;;;;;10.24;67.06;101779.97;7364117;19;20648;-61
2023/02/14 06:02:31;;;;;;;0.00;0.00;;;;;;;10.35;66.01;101804.31;7360610;19;20010;-61
2023/02/14 06:04:56;;;;;;;0.00;0.00;;;;;;;10.30;67.00;101779.97;7363961;19;20044;-59
2023/02/14 06:07:22;;;;;;;0.00;0.00;;;;;;;10.45;66.83;101800.81;7361576;19;20641;-59
2023/02/14 06:09:48;;;;;;;0.00;0.00;;;;;;;10.35;67.25;101776.47;7361941;19;20585;-61
2023/02/14 06:12:13;;;;;;;0.00;0.00;;;;;;;10.49;66.89;101794.69;7362505;19;20893;-61
2023/02/14 06:14:40;;;;;;;0.00;0.00;;;;;;;10.44;66.62;101783.41;7365923;19;20067;-60
2023/02/14 06:17:05;;;;;;;0.05;0.05;;;;;;;10.51;66.57;101785.09;7361143;19;20011;-61
2023/02/14 06:19:31;;;;;;;0.00;0.00;;;;;;;10.54;65.96;101799.88;7363758;19;20027;-61
2023/02/14 06:21:56;;;;;;;0.00;0.00;;;;;;;10.52;66.75;101792.06;7357851;19;20026;-61
2023/02/14 06:24:22;;;;;;;0.10;0.10;;;;;;;10.50;67.19;101793.81;7364320;19;20577;-61
2023/02/14 06:26:47;;;;;;;0.10;0.10;;;;;;;10.53;66.99;101799.00;7363817;19;20006;-60
2023/02/14 06:29:15;;;;;;;0.00;0.00;;;;;;;10.52;67.17;101792.06;7366193;19;20112;-62
2023/02/14 06:31:41;;;;;;;0.10;0.10;;;;;;;10.44;67.48;101780.78;7358688;19;20785;-60
2023/02/14 06:34:06;;;;;;;0.00;0.00;;;;;;;10.49;67.27;101784.25;7364318;19;22703;-61
2023/02/14 06:36:32;;;;;;;0.00;0.00;;;;;;;10.56;67.19;101787.69;7362301;19;20070;-61
2023/02/14 06:38:57;;;;;;;0.00;0.00;;;;;;;10.57;66.85;101779.84;7364299;19;20021;-60
2023/02/14 06:41:22;;;;;;;0.00;0.00;;;;;;;10.49;66.94;101758.13;7362781;19;20071;-60
2023/02/14 06:43:48;;;;;;;0.00;0.00;;;;;;;10.52;67.04;101768.53;7363081;19;20326;-61
2023/02/14 06:46:14;;;;;;;0.00;0.00;;;;;;;10.60;67.01;101778.97;7363627;19;20570;-61
2023/02/14 06:48:40;;;;;;;0.00;0.00;;;;;;;10.59;67.43;101787.66;7358806;19;20006;-60
2023/02/14 06:51:05;;;;;;;0.00;0.00;;;;;;;10.59;67.50;101783.31;7359398;19;20018;-61
2023/02/14 06:53:31;;;;;;;0.10;0.10;;;;;;;10.61;67.37;101786.78;7364371;19;20018;-61
2023/02/14 06:55:56;;;;;;;0.10;0.10;;;;;;;10.55;67.04;101776.38;7358220;19;20022;-60
2023/02/14 06:58:22;;;;;;;0.00;0.00;;;;;;;10.57;67.14;101774.63;7353135;19;20014;-60
2023/02/14 07:00:47;;;;;;;0.10;0.10;;;;;;;10.60;67.36;101790.28;7360434;19;20035;-61
2023/02/14 07:03:12;;;;;;;0.00;0.00;;;;;;;10.69;67.17;101798.91;7362093;19;20081;-61
2023/02/14 07:05:38;;;;;;;0.00;0.00;;;;;;;10.69;67.80;101797.16;7360028;19;20990;-61
2023/02/14 07:08:06;;;;;;;0.00;0.00;;;;;;;10.71;67.08;101789.34;7362631;19;20038;-61
2023/02/14 07:10:32;;;;;;;0.00;0.00;;;;;;;10.74;67.86;101794.53;7358673;19;20710;-61
2023/02/14 07:12:58;;;;;;;0.00;0.00;;;;;;;10.73;68.28;101775.38;7357978;19;21234;-61
2023/02/14 07:15:24;;;;;;;0.08;0.08;;;;;;;10.78;67.89;101798.88;7360037;19;20105;-61
2023/02/14 07:17:49;;;;;;;0.00;0.00;;;;;;;10.79;68.08;101796.25;7357392;19;21401;-60
2023/02/14 07:20:14;;;;;;;0.10;0.10;;;;;;;10.83;67.68;101797.09;7351879;19;20085;-61
2023/02/14 07:22:40;;;;;;;0.00;0.00;;;;;;;10.84;67.91;101786.63;7361810;19;20034;-60
2023/02/14 07:25:06;;;;;;;0.00;0.00;;;;;;;10.48;67.73;101734.63;7358739;19;20010;-61
2023/02/14 07:27:32;;;;;;;0.00;0.00;;;;;;;10.73;68.15;101769.28;7361628;19;20006;-61
2023/02/14 07:29:58;;;;;;;0.03;0.03;;;;;;;10.80;68.01;101786.69;7360528;19;20005;-60
2023/02/14 07:32:23;;;;;;;0.10;0.10;;;;;;;10.83;67.55;101797.09;7331209;19;20466;-61
2023/02/14 07:34:49;;;;;;;0.00;0.00;;;;;;;10.88;67.83;101805.78;7358886;19;20006;-60
2023/02/14 07:37:16;;;;;;;0.05;0.05;;;;;;;10.88;68.26;101813.63;7358633;19;20014;-60
2023/02/14 07:39:42;;;;;;;0.00;0.00;;;;;;;10.88;68.01;101809.25;7361857;19;20755;-61
2023/02/14 07:42:07;;;;;;;0.10;0.10;;;;;;;10.91;67.87;101822.31;7361711;19;20548;-60
2023/02/14 07:44:33;;;;;;;0.00;0.00;;;;;;;10.89;67.97;101810.13;7362073;19;20010;-61
2023/02/14 07:46:58;;;;;;;0.00;0.00;;;;;;;10.87;68.24;101819.72;7353402;19;20031;-58
2023/02/14 07:49:24;;;;;;;0.00;0.00;;;;;;;11.00;67.63;101830.97;7355775;19;20584;-61
2023/02/14 07:51:49;;;;;;;0.00;0.00;;;;;;;11.01;67.25;101817.91;7359857;19;19998;-61
2023/02/14 07:54:15;;;;;;;0.00;0.00;;;;;;;11.06;67.88;101828.34;7356161;19;20022;-59
2023/02/14 07:56:40;;;;;;;0.05;0.05;;;;;;;11.06;68.04;101816.13;7360436;19;20854;-61
2023/02/14 07:59:05;;;;;;;0.00;0.00;;;;;;;11.14;67.98;101823.91;7356884;19;20026;-61
2023/02/14 08:01:31;;;;;;;0.00;0.00;;;;;;;11.13;68.00;101823.03;7352138;19;20756;-61
2023/02/14 08:03:56;;;;;;;0.00;0.00;;;;;;;11.21;67.97;101825.59;7360189;19;20861;-60
2023/02/14 08:06:24;;;;;;;0.03;0.03;;;;;;;11.20;68.36;101816.00;7360961;19;20564;-62
2023/02/14 08:08:50;;;;;;;0.00;0.00;;;;;;;11.28;68.56;101826.41;7357402;19;20002;-61
2023/02/14 08:12:57;;;;;;;0.10;0.10;;;;;;;11.30;68.60;101832.50;7357648;19;20764;-59
2023/02/14 08:14:01;;;;;;;0.00;0.00;;;;;;;11.33;68.37;101829.88;7342026;19;20006;-61
2023/02/14 08:16:26;;;;;;;0.08;0.08;;;;;;;11.35;68.04;101822.88;7354669;19;20009;-60
2023/02/14 08:18:52;;;;;;;0.05;0.05;;;;;;;11.38;68.60;101828.09;7358980;19;20022;-61
2023/02/14 08:21:17;;;;;;;0.10;0.10;;;;;;;11.40;67.99;101821.97;7359901;19;20016;-61
2023/02/14 08:23:42;;;;;;;0.00;0.00;;;;;;;11.41;68.56;101817.63;7353151;19;20024;-61
2023/02/14 08:26:08;;;;;;;0.10;0.10;;;;;;;11.45;68.20;101808.84;7358079;19;20003;-61
2023/02/14 08:28:34;;;;;;;0.00;0.00;;;;;;;11.49;68.02;101814.91;7356303;19;20727;-60
2023/02/14 08:31:01;;;;;;;0.00;0.00;;;;;;;11.40;67.74;101794.94;7354664;19;20010;-61
2023/02/14 08:33:26;;;;;;;0.00;0.00;;;;;;;11.53;68.37;101804.41;7355035;19;20011;-61
2023/02/14 08:35:52;;;;;;;0.00;0.00;;;;;;;11.56;68.26;101808.78;7356382;19;20770;-59
2023/02/14 08:38:17;;;;;;;0.00;0.00;;;;;;;11.51;68.15;101798.34;7357683;19;20010;-61
2023/02/14 08:40:43;;;;;;;0.00;0.00;;;;;;;11.59;68.00;101806.09;7358643;19;20014;-61
2023/02/14 08:43:08;;;;;;;0.00;0.00;;;;;;;11.62;67.70;101804.34;7356286;19;20720;-61
2023/02/14 08:45:34;;;;;;;0.00;0.00;;;;;;;11.57;68.04;101793.03;7356468;19;20718;-59
2023/02/14 08:48:01;;;;;;;0.00;0.00;;;;;;;11.65;68.03;101787.72;7355171;19;20003;-61
2023/02/14 08:50:27;;;;;;;0.08;0.08;;;;;;;11.58;67.69;101797.41;7356970;19;20470;-61
2023/02/14 08:52:52;;;;;;;0.00;0.00;;;;;;;11.57;68.54;101776.50;7352533;19;20013;-60
2023/02/14 08:55:18;;;;;;;0.00;0.00;;;;;;;11.70;68.32;101805.09;7349094;19;20027;-60
2023/02/14 08:57:43;;;;;;;0.00;0.00;;;;;;;11.65;68.39;101791.22;7349602;19;20003;-61
2023/02/14 09:00:09;;;;;;;0.00;0.00;;;;;;;11.80;68.47;101810.25;7352349;19;20010;-61
2023/02/14 09:02:34;;;;;;;0.00;0.00;;;;;;;11.84;68.02;101801.53;7353946;19;19998;-61
2023/02/14 09:05:00;;;;;;;0.00;0.00;;;;;;;11.87;68.34;101798.91;7351642;19;20034;-61
2023/02/14 09:07:25;;;;;;;0.00;0.00;;;;;;;11.87;68.26;101806.75;7354243;19;20005;-61
2023/02/14 09:09:51;;;;;;;0.00;0.00;;;;;;;11.90;68.65;101801.47;7353058;19;20109;-61
2023/02/14 09:12:16;;;;;;;0.00;0.00;;;;;;;11.89;68.52;101804.97;7359598;19;20074;-61
2023/02/14 09:14:42;;;;;;;0.00;0.00;;;;;;;11.96;68.51;101806.63;7358785;19;20010;-61
2023/02/14 09:17:09;;;;;;;0.00;0.00;;;;;;;11.97;68.60;101800.53;7361067;19;20002;-61
2023/02/14 09:19:36;;;;;;;0.10;0.10;;;;;;;11.98;68.95;101794.41;7362015;19;19998;-61
2023/02/14 09:22:03;;;;;;;0.00;0.00;;;;;;;12.02;68.20;101797.88;7360404;19;20049;-61
2023/02/14 09:24:32;;;;;;;0.07;0.07;;;;;;;12.04;68.12;101803.94;7360285;19;20029;-60
2023/02/14 09:26:58;;;;;;;0.00;0.00;;;;;;;12.03;68.60;101797.84;7364784;19;20441;-61
2023/02/14 09:29:25;;;;;;;0.00;0.00;;;;;;;12.05;68.56;101800.44;7365966;19;19999;-60
2023/02/14 09:31:58;;;;;;;0.10;0.10;;;;;;;12.10;68.34;101809.97;7360631;19;20428;-62
2023/02/14 09:34:25;;;;;;;0.10;0.10;;;;;;;12.09;68.85;101800.38;7361070;19;20002;-60
2023/02/14 09:36:50;;;;;;;0.00;0.00;;;;;;;12.13;68.92;101809.94;7365098;19;20081;-60
2023/02/14 09:39:16;;;;;;;0.00;0.00;;;;;;;12.14;69.02;101810.81;7363983;19;20547;-61
2023/02/14 09:42:19;;;;;;;0.00;0.00;;;;;;;12.19;68.23;101815.09;7361806;19;20784;-60
2023/02/14 09:44:50;;;;;;;0.10;0.10;;;;;;;12.22;68.78;101813.34;7255533;19;2004509;-61
2023/02/14 09:48:05;;;;;;;0.00;0.00;;;;;;;12.28;67.84;101808.91;7359136;19;20029;-61
2023/02/14 09:50:42;;;;;;;0.05;0.05;;;;;;;12.29;69.00;101809.75;7254219;19;2004931;-61
2023/02/14 09:53:19;;;;;;;0.00;0.00;;;;;;;12.35;68.32;101814.91;7363611;19;20003;-61
2023/02/14 09:55:52;;;;;;;0.00;0.00;;;;;;;12.29;68.56;101809.75;7360246;19;20348;-61
2023/02/14 09:58:22;;;;;;;0.00;0.00;;;;;;;12.26;68.95;101789.69;7360544;19;20035;-61
2023/02/14 10:01:09;;;;;;;0.00;0.00;;;;;;;12.40;68.18;101789.53;7359360;19;20007;-61
2023/02/14 10:03:41;;;;;;;0.00;0.00;;;;;;;12.45;68.77;101790.34;7358886;19;20026;-59
2023/02/14 10:06:25;;;;;;;0.10;0.10;;;;;;;12.51;67.84;101811.22;7361184;19;21212;-62
2023/02/14 10:09:08;;;;;;;0.00;0.00;;;;;;;12.52;69.19;101807.75;7361197;19;20011;-61
2023/02/14 10:11:34;;;;;;;0.00;0.00;;;;;;;12.52;69.08;101812.97;7360073;19;20014;-61
2023/02/14 10:14:21;;;;;;;0.00;0.00;;;;;;;12.59;68.47;101814.63;7362670;19;20018;-61
2023/02/14 10:17:05;;;;;;;0.00;0.00;;;;;;;12.63;68.40;101821.56;7260339;19;2004646;-61
2023/02/14 10:19:37;;;;;;;0.00;0.00;;;;;;;12.64;68.98;101820.66;7362463;19;20018;-60
2023/02/14 10:22:09;;;;;;;0.00;0.00;;;;;;;12.67;69.56;101828.50;7363406;19;20478;-61
2023/02/14 10:24:36;;;;;;;0.00;0.00;;;;;;;12.66;69.44;101826.75;7361450;19;20051;-61
2023/02/14 10:27:39;;;;;;;0.00;0.00;;;;;;;12.73;68.97;101827.53;7362510;19;20022;-60
2023/02/14 10:30:18;;;;;;;0.00;0.00;;;;;;;12.79;68.49;101824.84;7259821;19;2004110;-61
2023/02/14 10:32:54;;;;;;;0.03;0.03;;;;;;;12.82;70.01;101818.66;7359737;19;20066;-61
2023/02/14 10:35:30;;;;;;;0.00;0.00;;;;;;;12.89;69.63;101822.94;7358828;19;20010;-61
2023/02/14 10:37:58;;;;;;;0.00;0.00;;;;;;;12.95;69.61;101813.22;7360849;19;20069;-61
2023/02/14 10:40:23;;;;;;;0.00;0.00;;;;;;;13.00;69.79;101815.78;7359996;19;20014;-60
2023/02/14 10:43:04;;;;;;;0.00;0.00;;;;;;;13.13;68.76;101812.09;7359604;19;20758;-61
2023/02/14 10:45:53;;;;;;;0.10;0.10;;;;;;;13.22;69.36;101819.84;7343693;19;20662;-61
2023/02/14 10:48:24;;;;;;;0.00;0.00;;;;;;;13.28;70.11;101815.38;7363209;19;20006;-61
2023/02/14 10:51:20;;;;;;;0.00;0.00;;;;;;;13.39;69.05;101818.72;7359822;19;20019;-61
2023/02/14 10:54:04;;;;;;;0.03;0.03;;;;;;;13.45;69.50;101816.00;7259018;19;2004560;-61
2023/02/14 10:56:42;;;;;;;0.00;0.00;;;;;;;13.55;68.64;101822.81;7363350;19;20036;-61
2023/02/14 10:59:29;;;;;;;0.00;0.00;;;;;;;13.60;68.77;101817.50;7361195;19;20037;-60
2023/02/14 11:01:58;;;;;;;0.00;0.00;;;;;;;13.52;69.61;101814.97;7360368;19;20010;-61
2023/02/14 11:04:24;;;;;;;0.00;0.00;;;;;;;13.64;69.42;101820.03;7359750;19;20106;-61
2023/02/14 11:06:50;;;;;;;0.10;0.10;;;;;;;13.69;69.08;101812.94;7360196;19;20466;-61
2023/02/14 11:09:17;;;;;;;0.08;0.08;;;;;;;13.73;68.88;101809.34;7362442;19;20077;-61
2023/02/14 11:11:51;;;;;;;0.00;0.00;;;;;;;13.83;68.69;101814.44;7362670;19;20797;-61
2023/02/14 11:14:34;;;;;;;0.00;0.00;;;;;;;13.89;68.38;101815.22;7360406;19;20004;-61
2023/02/14 11:17:19;;;;;;;0.00;0.00;;;;;;;13.88;68.80;101812.59;7362098;19;20114;-61
2023/02/14 11:20:08;;;;;;;0.00;0.00;;;;;;;13.97;67.99;101812.44;7356786;19;20002;-61
2023/02/14 11:22:34;;;;;;;0.10;0.10;;;;;;;13.85;68.62;101789.03;7362413;19;20015;-61
2023/02/14 11:25:27;;;;;;;0.00;0.00;;;;;;;14.06;67.74;101814.88;7360811;19;20030;-61
2023/02/14 11:28:06;;;;;;;0.00;0.00;;;;;;;14.11;68.15;101809.53;7252896;19;2004259;-61
2023/02/14 11:30:39;;;;;;;0.03;0.03;;;;;;;14.14;68.21;101810.34;7353213;19;20006;-61
2023/02/14 11:33:09;;;;;;;0.00;0.00;;;;;;;14.14;68.39;101807.72;7357220;19;20039;-61
2023/02/14 11:35:36;;;;;;;0.00;0.00;;;;;;;14.11;68.56;101799.91;7360828;19;20048;-61
2023/02/14 11:38:23;;;;;;;0.00;0.00;;;;;;;14.21;67.57;101817.22;7361971;19;20018;-61
2023/02/14 11:40:54;;;;;;;0.00;0.00;;;;;;;14.24;67.71;101813.63;7356140;19;20443;-61
2023/02/14 11:43:30;;;;;;;0.10;0.10;;;;;;;14.25;67.51;101808.38;7358226;19;20100;-60
2023/02/14 11:46:18;;;;;;;0.00;0.00;;;;;;;14.28;67.12;101808.28;7360645;19;20024;-61
2023/02/14 11:49:22;;;;;;;0.10;0.10;;;;;;;14.27;66.76;101806.56;7359359;19;20045;-61
2023/02/14 11:51:48;;;;;;;0.00;0.00;;;;;;;14.15;67.63;101796.31;7259961;19;2004088;-61
2023/02/14 11:54:29;;;;;;;0.10;0.10;;;;;;;14.28;67.25;101799.56;7358880;19;20029;-61